Time;durP1;ratioP1;P1;durP2;ratioP2;P2;SDS_P1;SDS_P2;PMS_P1;PMS_P2;Temp;Humidity;BMP_temperature;BMP_pressure;BME280_temperature;BME280_humidity;BME280_pressure;Samples;Min_cycle;Max_cycle;Signal;HPM_P1;HPM_P2
2023/01/22 00:02:25;;;;;;;47.37;27.97;;;;;;;-3.26;100.00;103169.84;5241087;28;20064;-71
2023/01/22 00:04:57;;;;;;;48.23;27.17;;;;;;;-3.29;100.00;103164.50;5239726;28;20048;-71
2023/01/22 00:07:28;;;;;;;62.53;35.13;;;;;;;-3.32;100.00;103165.16;5241343;28;20069;-71
2023/01/22 00:09:59;;;;;;;49.17;28.57;;;;;;;-3.35;100.00;103166.53;5242577;28;20465;-71
2023/01/22 00:12:31;;;;;;;52.03;31.73;;;;;;;-3.35;100.00;103170.00;5244979;28;20168;-71
2023/01/22 00:15:03;;;;;;;49.53;29.63;;;;;;;-3.30;100.00;103173.81;5244628;28;20038;-71
2023/01/22 00:17:34;;;;;;;50.73;29.37;;;;;;;-3.14;100.00;103182.69;5245188;28;20037;-71
2023/01/22 00:20:06;;;;;;;49.53;30.63;;;;;;;-3.12;100.00;103179.53;5244717;28;20115;-71
2023/01/22 00:22:37;;;;;;;50.57;30.30;;;;;;;-2.98;100.00;103179.75;5244510;28;20056;-71
2023/01/22 00:25:11;;;;;;;47.37;29.43;;;;;;;-2.97;100.00;103177.31;5244765;28;20069;-71
2023/01/22 00:27:42;;;;;;;48.67;30.33;;;;;;;-2.94;100.00;103174.13;5245290;28;20067;-71
2023/01/22 00:30:14;;;;;;;51.17;29.80;;;;;;;-2.84;100.00;103174.09;5243787;28;20045;-71
2023/01/22 00:32:46;;;;;;;50.77;31.00;;;;;;;-2.81;100.00;103168.34;5244927;28;20026;-71
2023/01/22 00:35:17;;;;;;;50.95;30.25;;;;;;;-2.82;100.00;103167.47;5244574;28;20116;-70
2023/01/22 00:37:48;;;;;;;50.90;32.20;;;;;;;-2.84;100.00;103163.00;5244545;28;20029;-73
2023/01/22 00:40:20;;;;;;;51.97;31.53;;;;;;;-2.78;100.00;103158.38;5244396;28;20030;-71
2023/01/22 00:42:51;;;;;;;48.97;31.13;;;;;;;-2.88;100.00;103150.75;5244357;28;20108;-70
2023/01/22 00:45:22;;;;;;;46.43;29.83;;;;;;;-2.83;100.00;103154.59;5244412;28;20068;-71
2023/01/22 00:47:54;;;;;;;46.93;29.37;;;;;;;-2.83;100.00;103157.13;5244301;28;20057;-70
2023/01/22 00:50:25;;;;;;;49.90;31.47;;;;;;;-2.95;100.00;103157.03;5244467;28;20120;-70
2023/01/22 00:52:57;;;;;;;44.40;28.93;;;;;;;-3.01;100.00;103151.41;5244233;28;20079;-71
2023/01/22 00:55:29;;;;;;;46.67;30.30;;;;;;;-3.05;100.00;103167.28;5243909;28;20033;-71
2023/01/22 00:58:00;;;;;;;46.10;29.40;;;;;;;-3.10;100.00;103164.34;5244428;28;20087;-70
2023/01/22 01:00:31;;;;;;;43.30;28.70;;;;;;;-3.18;100.00;103143.28;5244308;28;20037;-71
2023/01/22 01:06:01;;;;;;;43.58;28.33;;;;;;;-3.23;100.00;103144.59;5243972;28;20037;-71
2023/01/22 01:08:36;;;;;;;44.65;27.92;;;;;;;-3.26;100.00;103143.47;5243932;28;20017;-71
2023/01/22 01:11:11;;;;;;;44.15;29.70;;;;;;;-3.29;100.00;103136.44;5243791;28;20083;-71
2023/01/22 01:13:43;;;;;;;49.33;31.00;;;;;;;-3.25;100.00;103141.03;5244382;28;20404;-70
2023/01/22 01:16:23;;;;;;;47.80;31.52;;;;;;;-3.25;100.00;103132.47;5243813;28;20068;-71
2023/01/22 01:19:03;;;;;;;52.88;31.85;;;;;;;-3.28;100.00;103137.31;5244166;28;20338;-71
2023/01/22 01:21:35;;;;;;;46.03;30.48;;;;;;;-3.32;100.00;103143.84;5242570;28;20079;-71
2023/01/22 01:24:06;;;;;;;51.78;31.65;;;;;;;-3.37;100.00;103134.91;5243624;28;20057;-70
2023/01/22 01:26:38;;;;;;;45.47;30.73;;;;;;;-3.42;100.00;103128.56;5243334;28;20084;-70
2023/01/22 01:29:10;;;;;;;50.75;30.33;;;;;;;-3.50;100.00;103130.47;5243558;28;20477;-70
2023/01/22 01:31:42;;;;;;;49.10;29.93;;;;;;;-3.49;100.00;103139.91;5242748;28;20083;-70
2023/01/22 01:34:13;;;;;;;48.27;31.10;;;;;;;-3.53;100.00;103132.75;5243347;28;20088;-70
2023/01/22 01:36:44;;;;;;;49.80;30.60;;;;;;;-3.56;100.00;103119.75;5243374;28;20030;-70
2023/01/22 01:39:16;;;;;;;56.43;32.13;;;;;;;-3.57;100.00;103125.66;5243229;28;20112;-70
2023/01/22 01:41:49;;;;;;;45.63;30.83;;;;;;;-3.61;100.00;103121.94;5243261;28;20072;-70
2023/01/22 01:44:22;;;;;;;54.17;33.17;;;;;;;-3.61;100.00;103114.28;5243091;28;20053;-70
2023/01/22 01:47:04;;;;;;;48.60;30.83;;;;;;;-3.62;100.00;103097.22;5243682;28;20033;-70
2023/01/22 01:49:51;;;;;;;46.08;31.42;;;;;;;-3.67;100.00;103099.38;5242931;28;20033;-70
2023/01/22 01:52:22;;;;;;;55.90;32.15;;;;;;;-3.63;100.00;103092.00;5242709;28;20033;-70
2023/01/22 01:54:56;;;;;;;47.17;30.57;;;;;;;-3.69;100.00;103085.63;5242965;28;20033;-70
2023/01/22 01:57:31;;;;;;;52.08;31.63;;;;;;;-3.71;100.00;103101.56;5243526;28;20400;-70
2023/01/22 02:00:09;;;;;;;48.80;30.77;;;;;;;-3.68;100.00;103087.41;5243078;28;20032;-70
2023/01/22 02:02:40;;;;;;;50.90;30.38;;;;;;;-3.76;100.00;103085.88;5242763;28;20022;-70
2023/01/22 02:05:12;;;;;;;50.67;32.00;;;;;;;-3.75;100.00;103087.66;5242828;28;20083;-70
2023/01/22 02:07:43;;;;;;;48.33;29.20;;;;;;;-3.77;100.00;103090.84;5243267;28;20496;-70
2023/01/22 02:10:14;;;;;;;43.23;28.10;;;;;;;-3.77;100.00;103085.75;5243593;28;20453;-70
2023/01/22 02:12:46;;;;;;;51.47;30.87;;;;;;;-3.76;100.00;103092.63;5242704;28;20030;-70
2023/01/22 02:15:17;;;;;;;46.30;28.83;;;;;;;-3.79;100.00;103093.25;5241899;28;20103;-70
2023/01/22 02:17:49;;;;;;;40.57;26.97;;;;;;;-3.79;100.00;103088.16;5242256;28;20350;-70
2023/01/22 02:20:20;;;;;;;42.10;26.93;;;;;;;-3.80;100.00;103077.84;5242914;28;20494;-70
2023/01/22 02:22:51;;;;;;;44.87;28.17;;;;;;;-3.75;100.00;103074.00;5242466;28;20041;-70
2023/01/22 02:25:24;;;;;;;46.83;29.10;;;;;;;-3.73;100.00;103073.38;5241199;28;20034;-70
2023/01/22 02:27:55;;;;;;;47.30;28.98;;;;;;;-3.65;100.00;103081.66;5241790;28;20064;-70
2023/01/22 02:30:27;;;;;;;41.53;27.00;;;;;;;-3.70;100.00;103081.28;5242363;28;20127;-70
2023/01/22 02:32:58;;;;;;;43.17;28.57;;;;;;;-3.77;100.00;103078.97;5242058;28;20107;-70
2023/01/22 02:35:29;;;;;;;40.93;26.33;;;;;;;-3.81;100.00;103071.88;5242301;28;20029;-70
2023/01/22 02:38:02;;;;;;;42.57;25.87;;;;;;;-3.87;100.00;103086.66;5242334;28;20063;-70
2023/01/22 02:40:33;;;;;;;41.50;27.30;;;;;;;-3.92;100.00;103088.81;5242368;28;20037;-70
2023/01/22 02:43:04;;;;;;;43.83;27.60;;;;;;;-3.96;100.00;103081.69;5241290;28;20029;-70
2023/01/22 02:45:36;;;;;;;42.93;26.93;;;;;;;-3.96;100.00;103089.34;5242510;28;20377;-71
2023/01/22 02:48:07;;;;;;;41.63;26.37;;;;;;;-4.00;100.00;103082.19;5241642;28;20415;-71
2023/01/22 02:50:39;;;;;;;37.03;24.13;;;;;;;-4.00;100.00;103072.00;5242039;28;20389;-70
2023/01/22 02:53:11;;;;;;;41.13;27.10;;;;;;;-3.93;100.00;103073.38;5242311;28;20033;-70
2023/01/22 02:55:43;;;;;;;40.37;25.57;;;;;;;-3.81;100.00;103071.88;5242028;28;20299;-71
2023/01/22 02:58:16;;;;;;;42.25;25.33;;;;;;;-3.62;100.00;103083.56;5241626;28;20059;-70
2023/01/22 03:00:47;;;;;;;43.90;27.35;;;;;;;-3.55;100.00;103078.22;5241857;28;20026;-70
2023/01/22 03:03:18;;;;;;;41.53;27.77;;;;;;;-3.37;100.00;103096.66;5241902;28;20479;-71
2023/01/22 03:05:50;;;;;;;40.57;25.23;;;;;;;-3.27;100.00;103086.44;5242451;28;20029;-70
2023/01/22 03:08:25;;;;;;;40.35;25.73;;;;;;;-3.13;100.00;103075.66;5241620;28;20037;-70
2023/01/22 03:10:57;;;;;;;41.03;25.25;;;;;;;-3.01;100.00;103077.41;5242075;28;20080;-70
2023/01/22 03:21:58;;;;;;;37.63;26.90;;;;;;;-2.77;100.00;103079.38;5242008;28;20053;-69
2023/01/22 03:24:30;;;;;;;35.47;24.83;;;;;;;-2.66;100.00;103075.09;5242353;28;20108;-68
2023/01/22 03:27:02;;;;;;;38.23;26.50;;;;;;;-2.63;100.00;103070.22;5241283;28;20084;-69
2023/01/22 03:29:37;;;;;;;35.28;25.33;;;;;;;-2.62;100.00;103068.59;5240352;28;20029;-69
2023/01/22 03:32:08;;;;;;;38.97;25.33;;;;;;;-2.64;100.00;103063.34;5241649;28;20048;-70
2023/01/22 03:34:40;;;;;;;36.67;24.43;;;;;;;-2.62;100.00;103068.59;5241664;28;20034;-70
2023/01/22 03:37:14;;;;;;;36.47;24.87;;;;;;;-2.63;100.00;103065.13;5241904;28;20424;-70
2023/01/22 03:39:45;;;;;;;32.05;24.33;;;;;;;-2.60;100.00;103060.25;5241494;28;20030;-70
2023/01/22 03:42:17;;;;;;;36.23;24.43;;;;;;;-2.61;100.00;103055.03;5240302;28;20029;-70
2023/01/22 03:44:48;;;;;;;35.03;25.00;;;;;;;-2.57;100.00;103054.50;5243489;28;20470;-70
2023/01/22 03:47:19;;;;;;;33.47;24.73;;;;;;;-2.60;100.00;103044.94;5245136;28;20036;-70
2023/01/22 03:49:51;;;;;;;40.07;23.57;;;;;;;-2.64;100.00;103039.47;5245372;28;20465;-70
2023/01/22 03:52:22;;;;;;;35.17;23.80;;;;;;;-2.67;100.00;103042.69;5243950;28;20083;-69
2023/01/22 03:54:54;;;;;;;32.67;23.77;;;;;;;-2.77;100.00;103043.63;5245866;28;20429;-70
2023/01/22 03:57:25;;;;;;;29.00;22.20;;;;;;;-2.84;100.00;103043.91;5245592;28;20037;-70
2023/01/22 04:00:00;;;;;;;34.07;23.37;;;;;;;-2.98;100.00;103047.94;5245023;28;20037;-70
2023/01/22 04:02:33;;;;;;;31.52;22.58;;;;;;;-3.07;100.00;103049.78;5245029;28;20033;-69
2023/01/22 04:05:05;;;;;;;32.05;23.27;;;;;;;-3.15;100.00;103045.72;5244735;28;20026;-69
2023/01/22 04:07:36;;;;;;;32.22;22.25;;;;;;;-3.20;100.00;103041.91;5243872;28;20030;-70
2023/01/22 04:10:08;;;;;;;33.37;24.70;;;;;;;-3.30;100.00;103053.94;5243721;28;20500;-70
2023/01/22 04:12:39;;;;;;;34.58;22.88;;;;;;;-3.38;100.00;103044.78;5244217;28;20171;-70
2023/01/22 04:15:11;;;;;;;36.60;25.00;;;;;;;-3.39;100.00;103052.31;5245297;28;20377;-70
2023/01/22 04:17:42;;;;;;;33.40;22.73;;;;;;;-3.41;100.00;103046.16;5244900;28;20029;-70
2023/01/22 04:20:14;;;;;;;34.37;23.40;;;;;;;-3.44;100.00;103046.81;5244724;28;20033;-70
2023/01/22 04:22:46;;;;;;;32.70;23.00;;;;;;;-3.45;100.00;103045.03;5243664;28;20428;-70
2023/01/22 04:25:17;;;;;;;36.63;25.17;;;;;;;-3.45;100.00;103045.03;5244813;28;20036;-71
2023/01/22 04:27:49;;;;;;;32.77;24.40;;;;;;;-3.35;100.00;103041.56;5245478;28;20449;-71
2023/01/22 04:30:20;;;;;;;35.47;23.87;;;;;;;-3.22;100.00;103040.88;5244997;28;20554;-71
2023/01/22 04:32:53;;;;;;;36.33;24.92;;;;;;;-3.12;100.00;103044.28;5244581;28;20096;-71
2023/01/22 04:35:24;;;;;;;37.33;25.47;;;;;;;-3.06;100.00;103048.97;5244716;28;20045;-71
2023/01/22 04:37:56;;;;;;;40.00;25.17;;;;;;;-2.98;100.00;103042.84;5244621;28;20028;-71
2023/01/22 04:40:27;;;;;;;35.07;24.90;;;;;;;-2.91;100.00;103044.22;5244451;28;20095;-71
2023/01/22 04:43:00;;;;;;;34.47;25.50;;;;;;;-2.85;100.00;103042.16;5244519;28;20260;-71
2023/01/22 04:45:32;;;;;;;39.33;25.30;;;;;;;-2.73;100.00;103049.88;5244325;28;20032;-71
2023/01/22 04:48:04;;;;;;;37.72;25.42;;;;;;;-2.66;100.00;103051.22;5244392;28;20025;-71
2023/01/22 04:50:35;;;;;;;35.23;25.03;;;;;;;-2.65;100.00;103033.47;5243067;28;20052;-71
2023/01/22 04:53:07;;;;;;;34.67;23.40;;;;;;;-2.59;100.00;103039.06;5244268;28;20036;-71
2023/01/22 04:55:40;;;;;;;31.53;23.83;;;;;;;-2.53;100.00;103037.75;5243933;28;20057;-71
2023/01/22 04:58:12;;;;;;;32.53;24.17;;;;;;;-2.51;100.00;103023.41;5242982;28;20041;-71
2023/01/22 05:00:43;;;;;;;31.40;21.83;;;;;;;-2.50;100.00;103032.88;5244353;28;20033;-71
2023/01/22 05:03:15;;;;;;;30.27;20.93;;;;;;;-2.50;100.00;103036.31;5244582;28;20029;-71
2023/01/22 05:05:46;;;;;;;30.17;20.93;;;;;;;-2.51;100.00;103032.00;5242778;28;20030;-71
2023/01/22 05:08:17;;;;;;;27.87;21.60;;;;;;;-2.51;100.00;103025.97;5244316;28;20033;-71
2023/01/22 05:10:49;;;;;;;30.57;21.23;;;;;;;-2.49;100.00;103029.56;5243937;28;20041;-71
2023/01/22 05:13:20;;;;;;;34.00;21.60;;;;;;;-2.46;100.00;103033.22;5242510;28;20037;-71
2023/01/22 05:15:51;;;;;;;34.03;22.20;;;;;;;-2.44;100.00;103023.13;5243838;28;20507;-71
2023/01/22 05:18:23;;;;;;;28.67;20.07;;;;;;;-2.35;100.00;103031.50;5243783;28;20033;-71
2023/01/22 05:20:54;;;;;;;27.17;20.30;;;;;;;-2.36;100.00;103042.47;5242420;28;20174;-71
2023/01/22 05:23:25;;;;;;;29.13;20.10;;;;;;;-2.35;100.00;103028.94;5244539;28;20034;-71
2023/01/22 05:25:57;;;;;;;26.37;19.50;;;;;;;-2.29;100.00;103039.59;5243596;28;20183;-72
2023/01/22 05:28:28;;;;;;;27.03;19.63;;;;;;;-2.30;100.00;103047.16;5244037;28;20516;-71
2023/01/22 05:31:00;;;;;;;26.53;19.87;;;;;;;-2.27;100.00;103055.97;5226567;28;20481;-71
2023/01/22 05:33:31;;;;;;;24.73;19.67;;;;;;;-2.27;100.00;103055.97;5243682;28;20030;-71
2023/01/22 05:36:03;;;;;;;25.73;19.40;;;;;;;-2.23;100.00;103055.41;5243480;28;20473;-71
2023/01/22 05:38:35;;;;;;;26.93;19.17;;;;;;;-2.26;100.00;103044.94;5225744;28;20283;-72
2023/01/22 05:41:06;;;;;;;29.43;19.93;;;;;;;-2.20;100.00;103057.31;5243038;28;20034;-72
2023/01/22 05:43:38;;;;;;;27.73;20.30;;;;;;;-2.17;100.00;103054.09;5243272;28;20064;-72
2023/01/22 05:46:10;;;;;;;27.60;18.80;;;;;;;-2.22;100.00;103051.22;5242897;28;20033;-73
2023/01/22 05:48:41;;;;;;;26.93;19.53;;;;;;;-2.20;100.00;103058.19;5243112;28;20385;-72
2023/01/22 05:51:13;;;;;;;25.03;18.80;;;;;;;-2.18;100.00;103058.31;5243037;28;20021;-71
2023/01/22 05:53:44;;;;;;;24.30;18.77;;;;;;;-2.16;100.00;103066.09;5243017;28;20036;-71
2023/01/22 05:56:16;;;;;;;25.03;18.93;;;;;;;-2.18;100.00;103065.09;5243067;28;20037;-71
2023/01/22 05:58:49;;;;;;;27.60;19.73;;;;;;;-2.20;100.00;103068.41;5243417;28;20041;-71
2023/01/22 06:01:20;;;;;;;;;;;;;;;-2.13;100.00;103064.66;5243301;28;20053;-71
2023/01/22 06:03:52;;;;;;;26.10;18.58;;;;;;;-2.17;100.00;103062.66;5242868;28;19952;-71
2023/01/22 06:06:23;;;;;;;22.80;17.70;;;;;;;-2.13;100.00;103063.78;5241167;28;20025;-71
2023/01/22 06:08:54;;;;;;;26.30;18.53;;;;;;;-2.14;100.00;103067.09;5242626;28;20043;-71
2023/01/22 06:11:27;;;;;;;24.93;18.30;;;;;;;-2.13;100.00;103074.00;5242751;28;20057;-71
2023/01/22 06:13:58;;;;;;;22.95;18.02;;;;;;;-2.16;100.00;103061.88;5242994;28;20075;-71
2023/01/22 06:16:29;;;;;;;23.23;18.80;;;;;;;-2.15;100.00;103052.56;5242673;28;20056;-71
2023/01/22 06:19:04;;;;;;;26.73;19.83;;;;;;;-2.15;100.00;103061.09;5242818;28;20108;-71
2023/01/22 06:21:36;;;;;;;25.35;19.58;;;;;;;-2.16;100.00;103058.44;5225060;28;20588;-71
2023/01/22 06:24:07;;;;;;;25.63;19.03;;;;;;;-2.12;100.00;103065.56;5242269;28;20037;-71
2023/01/22 06:26:39;;;;;;;23.77;18.37;;;;;;;-2.13;100.00;103063.78;5242247;28;20045;-71
2023/01/22 06:29:10;;;;;;;27.43;19.73;;;;;;;-2.14;100.00;103059.44;5242731;28;20052;-71
2023/01/22 06:31:41;;;;;;;24.27;18.87;;;;;;;-2.13;100.00;103068.88;5241147;28;20100;-71
2023/01/22 06:34:13;;;;;;;27.37;20.53;;;;;;;-2.12;100.00;103069.00;5242099;28;20029;-72
2023/01/22 06:36:44;;;;;;;26.73;20.70;;;;;;;-2.11;100.00;103064.78;5242865;28;20029;-72
2023/01/22 06:39:16;;;;;;;28.60;19.23;;;;;;;-2.10;100.00;103067.44;5242295;28;20033;-72
2023/01/22 06:41:47;;;;;;;28.60;19.50;;;;;;;-2.12;100.00;103063.00;5242239;28;20099;-72
2023/01/22 06:44:18;;;;;;;26.13;19.87;;;;;;;-2.09;100.00;103059.03;5243032;28;20041;-71
2023/01/22 06:46:50;;;;;;;25.93;19.07;;;;;;;-2.05;100.00;103065.25;5240817;28;20057;-71
2023/01/22 06:49:21;;;;;;;26.40;19.93;;;;;;;-2.06;100.00;103063.44;5242107;28;20029;-71
2023/01/22 06:51:52;;;;;;;29.27;19.63;;;;;;;-2.06;100.00;103059.25;5242053;28;20026;-71
2023/01/22 06:54:24;;;;;;;23.80;18.90;;;;;;;-2.02;100.00;103079.13;5240940;28;20103;-71
2023/01/22 06:56:55;;;;;;;25.77;20.00;;;;;;;-2.06;100.00;103068.56;5242334;28;20029;-71
2023/01/22 06:59:26;;;;;;;26.40;18.83;;;;;;;-2.01;100.00;103080.06;5241685;28;20482;-71
2023/01/22 07:01:58;;;;;;;24.37;18.63;;;;;;;-2.00;100.00;103078.38;5242564;28;20069;-71
2023/01/22 07:04:29;;;;;;;22.77;17.70;;;;;;;-2.02;100.00;103075.69;5241972;28;20035;-72
2023/01/22 07:07:00;;;;;;;27.13;19.10;;;;;;;-2.00;100.00;103078.38;5242401;28;20068;-72
2023/01/22 07:09:32;;;;;;;27.27;19.90;;;;;;;-2.05;100.00;103071.22;5241950;28;20030;-72
2023/01/22 07:12:03;;;;;;;24.43;17.80;;;;;;;-2.00;100.00;103079.25;5242126;28;20037;-71
2023/01/22 07:14:35;;;;;;;21.63;18.80;;;;;;;-1.98;100.00;103080.28;5241797;28;20025;-71
2023/01/22 07:17:06;;;;;;;25.47;19.00;;;;;;;-1.93;100.00;103084.06;5241749;28;20477;-71
2023/01/22 07:19:38;;;;;;;20.53;17.27;;;;;;;-1.96;100.00;103083.84;5245410;28;20025;-71
2023/01/22 07:22:09;;;;;;;21.57;18.27;;;;;;;-1.93;100.00;103080.59;5244747;28;20029;-71
2023/01/22 07:24:40;;;;;;;25.27;19.57;;;;;;;-1.93;100.00;103076.41;5245980;28;20431;-71
2023/01/22 07:27:12;;;;;;;26.03;18.33;;;;;;;-1.92;100.00;103080.72;5245300;28;20489;-71
2023/01/22 07:29:43;;;;;;;26.37;19.00;;;;;;;-1.89;100.00;103075.84;5245426;28;20065;-72
2023/01/22 07:32:15;;;;;;;24.70;18.90;;;;;;;-1.89;100.00;103073.28;5246182;28;20026;-71
2023/01/22 07:34:46;;;;;;;29.80;21.48;;;;;;;-1.89;100.00;103082.63;5245784;28;20071;-70
2023/01/22 07:37:18;;;;;;;27.43;20.17;;;;;;;-1.86;100.00;103080.31;5245429;28;20124;-71
2023/01/22 07:39:49;;;;;;;27.07;21.43;;;;;;;-1.86;100.00;103083.75;5246041;28;20480;-71
2023/01/22 07:42:20;;;;;;;27.03;20.60;;;;;;;-1.79;100.00;103084.19;5245435;28;20465;-71
2023/01/22 07:44:52;;;;;;;26.10;20.47;;;;;;;-1.76;100.00;103080.19;5245229;28;20057;-71
2023/01/22 07:47:23;;;;;;;24.57;18.87;;;;;;;-1.81;100.00;103084.09;5244915;28;20036;-71
2023/01/22 07:49:54;;;;;;;24.77;19.17;;;;;;;-1.79;100.00;103077.41;5245281;28;20108;-69
2023/01/22 07:52:26;;;;;;;23.73;19.00;;;;;;;-1.74;100.00;103094.00;5245067;28;20072;-69
2023/01/22 07:54:57;;;;;;;27.00;20.23;;;;;;;-1.68;100.00;103096.13;5245215;28;20025;-71
2023/01/22 07:57:28;;;;;;;24.67;18.53;;;;;;;-1.69;100.00;103095.25;5245126;28;20033;-69
2023/01/22 08:00:00;;;;;;;20.53;17.47;;;;;;;-1.69;100.00;103092.69;5244643;28;20108;-72
2023/01/22 08:02:31;;;;;;;22.50;17.33;;;;;;;-1.60;100.00;103102.69;5243512;28;20531;-70
2023/01/22 08:05:03;;;;;;;24.33;17.37;;;;;;;-1.60;100.00;103102.69;5245244;28;20469;-70
2023/01/22 08:07:34;;;;;;;24.80;17.40;;;;;;;-1.58;100.00;103101.13;5244371;28;20049;-70
2023/01/22 08:10:08;;;;;;;20.10;16.07;;;;;;;-1.54;100.00;103100.59;5244996;28;20034;-70
2023/01/22 08:12:41;;;;;;;21.45;17.63;;;;;;;-1.50;100.00;103104.25;5244362;28;20053;-70
2023/01/22 08:15:13;;;;;;;20.02;17.02;;;;;;;-1.39;100.00;103099.94;5244817;28;20033;-70
2023/01/22 08:17:48;;;;;;;22.23;17.30;;;;;;;-1.30;100.00;103110.88;5244971;28;20025;-70
2023/01/22 08:20:20;;;;;;;20.50;16.60;;;;;;;-1.23;100.00;103113.06;5243970;28;20124;-70
2023/01/22 08:22:59;;;;;;;20.93;16.40;;;;;;;-1.02;100.00;103105.19;5245123;28;20362;-70
2023/01/22 08:25:30;;;;;;;22.60;17.95;;;;;;;-0.93;100.00;103106.72;5244587;28;20136;-70
2023/01/22 08:28:03;;;;;;;21.30;18.60;;;;;;;-0.85;100.00;103114.06;5244929;28;20124;-71
2023/01/22 08:30:35;;;;;;;18.85;14.75;;;;;;;-0.83;100.00;103126.19;5244166;28;20064;-71
2023/01/22 08:33:07;;;;;;;18.37;14.83;;;;;;;-0.80;100.00;103125.53;5244436;28;20065;-71
2023/01/22 08:35:38;;;;;;;17.20;14.23;;;;;;;-0.86;100.00;103123.41;5244435;28;20359;-70
2023/01/22 08:38:10;;;;;;;18.63;14.07;;;;;;;-0.92;100.00;103118.75;5244624;28;20030;-71
2023/01/22 08:40:41;;;;;;;17.83;14.57;;;;;;;-0.86;100.00;103122.53;5243190;28;20029;-71
2023/01/22 08:43:12;;;;;;;16.37;14.67;;;;;;;-0.86;100.00;103122.53;5244370;28;20040;-70
2023/01/22 08:45:47;;;;;;;17.90;14.47;;;;;;;-0.85;100.00;103126.84;5243685;28;20053;-70
2023/01/22 08:48:18;;;;;;;18.45;14.55;;;;;;;-0.87;100.00;103119.09;5244186;28;20488;-71
2023/01/22 08:50:50;;;;;;;21.83;14.27;;;;;;;-0.84;100.00;103126.97;5244429;28;20064;-71
2023/01/22 08:53:21;;;;;;;15.37;13.47;;;;;;;-0.80;100.00;103128.09;5244020;28;20038;-71
2023/01/22 08:55:52;;;;;;;18.87;14.07;;;;;;;-0.81;100.00;103127.19;5244088;28;20045;-70
2023/01/22 08:58:26;;;;;;;20.50;14.97;;;;;;;-0.78;100.00;103121.41;5244079;28;20099;-70
2023/01/22 09:00:58;;;;;;;20.50;14.27;;;;;;;-0.79;100.00;103130.78;5244210;28;20112;-70
2023/01/22 09:03:29;;;;;;;19.07;14.00;;;;;;;-0.83;100.00;103126.19;5243981;28;20129;-70
2023/01/22 09:06:00;;;;;;;15.50;12.20;;;;;;;-0.82;100.00;103132.19;5226092;28;20036;-70
2023/01/22 09:08:32;;;;;;;18.13;12.97;;;;;;;-0.90;100.00;103126.56;5244197;28;20112;-70
2023/01/22 09:11:04;;;;;;;15.60;12.50;;;;;;;-0.93;100.00;103119.53;5243515;28;20396;-70
2023/01/22 09:13:35;;;;;;;16.17;12.13;;;;;;;-1.01;100.00;103124.88;5244270;28;20464;-70
2023/01/22 09:16:09;;;;;;;15.20;13.07;;;;;;;-1.02;100.00;103128.22;5243361;28;20037;-70
2023/01/22 09:18:41;;;;;;;17.02;12.93;;;;;;;-1.02;100.00;103130.78;5243595;28;20025;-70
2023/01/22 09:21:12;;;;;;;15.73;13.23;;;;;;;-0.97;100.00;103124.31;5242222;28;20045;-70
2023/01/22 09:23:43;;;;;;;15.33;12.37;;;;;;;-0.88;100.00;103124.97;5243642;28;20080;-70
2023/01/22 09:26:15;;;;;;;15.83;12.27;;;;;;;-0.84;100.00;103132.09;5242144;28;20025;-70
2023/01/22 09:28:46;;;;;;;19.30;12.33;;;;;;;-0.78;100.00;103127.41;5243489;28;20104;-70
2023/01/22 09:31:18;;;;;;;15.07;12.53;;;;;;;-0.73;100.00;103130.31;5243198;28;20492;-70
2023/01/22 09:33:50;;;;;;;14.30;12.53;;;;;;;-0.59;100.00;103121.03;5242896;28;20486;-70
2023/01/22 09:36:21;;;;;;;15.70;12.07;;;;;;;-0.52;100.00;103128.34;5243042;28;20026;-70
2023/01/22 09:38:53;;;;;;;15.57;11.80;;;;;;;-0.31;100.00;103134.09;5242755;28;20473;-70
2023/01/22 09:41:29;;;;;;;15.70;11.87;;;;;;;-0.12;100.00;103138.81;5241309;28;20037;-70
2023/01/22 09:44:33;;;;;;;14.57;11.88;;;;;;;0.12;100.00;103136.16;5242968;28;20096;-70
2023/01/22 09:47:17;;;;;;;15.50;11.55;;;;;;;0.14;100.00;103142.28;5242536;28;20028;-70
2023/01/22 09:50:06;;;;;;;12.70;10.38;;;;;;;0.13;100.00;103146.53;5242556;28;20034;-70
2023/01/22 09:52:39;;;;;;;15.45;11.27;;;;;;;-0.14;100.00;103149.78;5242769;28;20503;-70
2023/01/22 09:55:11;;;;;;;;;;;;;;;-0.12;100.00;103143.06;5243297;28;20032;-70
2023/01/22 09:57:45;;;;;;;16.10;11.63;;;;;;;-0.35;100.00;103141.47;5242879;28;19916;-70
2023/01/22 10:00:22;;;;;;;17.17;12.10;;;;;;;-0.45;100.00;103135.72;5243068;28;20040;-70
2023/01/22 10:02:56;;;;;;;13.88;11.40;;;;;;;-0.47;100.00;103137.25;5243044;28;20022;-70
2023/01/22 10:05:32;;;;;;;14.75;11.20;;;;;;;-0.42;100.00;103135.94;5243025;28;20040;-70
2023/01/22 10:08:15;;;;;;;13.90;11.50;;;;;;;-0.37;100.00;103141.38;5242261;28;20030;-70
2023/01/22 10:10:50;;;;;;;14.95;10.57;;;;;;;-0.41;100.00;103142.81;5242468;28;20045;-70
2023/01/22 10:13:32;;;;;;;15.05;11.65;;;;;;;-0.39;100.00;103148.97;5242479;28;20029;-70
2023/01/22 10:16:04;;;;;;;14.27;12.13;;;;;;;-0.42;100.00;103150.41;5242343;28;20044;-70
2023/01/22 10:18:39;;;;;;;14.88;12.25;;;;;;;-0.39;100.00;103150.63;5242788;28;20476;-70
2023/01/22 10:21:19;;;;;;;15.20;11.27;;;;;;;-0.45;100.00;103151.09;5242246;28;20029;-70
2023/01/22 10:23:51;;;;;;;13.63;10.75;;;;;;;-0.43;100.00;103162.31;5242554;28;20032;-70
2023/01/22 10:26:37;;;;;;;16.77;12.03;;;;;;;-0.50;100.00;103160.13;5240824;28;20057;-70
2023/01/22 10:29:20;;;;;;;14.27;11.30;;;;;;;-0.62;100.00;103151.56;5242344;28;20052;-70
2023/01/22 10:31:54;;;;;;;14.43;12.10;;;;;;;-0.63;100.00;103145.56;5242179;28;20477;-70
2023/01/22 10:34:30;;;;;;;14.27;11.35;;;;;;;-0.61;100.00;103143.06;5242142;28;20034;-70
2023/01/22 10:37:13;;;;;;;17.90;12.38;;;;;;;-0.64;100.00;103130.97;5242748;28;20349;-70
2023/01/22 10:39:46;;;;;;;16.63;12.45;;;;;;;-0.56;100.00;103136.63;5242678;28;20030;-70
2023/01/22 10:42:20;;;;;;;;;;;;;;;-0.37;100.00;103143.94;5242516;28;20036;-70
2023/01/22 10:45:08;;;;;;;;;;;;;;;-0.33;100.00;103150.16;5242489;28;20398;-70
2023/01/22 10:47:39;;;;;;;18.35;13.00;;;;;;;-0.47;100.00;103138.94;5242064;28;19970;-70
2023/01/22 10:50:12;;;;;;;15.97;11.27;;;;;;;-0.35;100.00;103154.28;5241673;28;20030;-70
2023/01/22 10:52:50;;;;;;;18.40;12.38;;;;;;;-0.44;100.00;103150.28;5241728;28;20449;-70
2023/01/22 10:55:29;;;;;;;13.73;11.52;;;;;;;-0.39;100.00;103161.78;5240389;28;20075;-70
2023/01/22 10:58:05;;;;;;;17.17;12.00;;;;;;;-0.38;100.00;103152.41;5242424;28;20030;-70
2023/01/22 11:00:38;;;;;;;14.23;11.38;;;;;;;-0.46;100.00;103156.97;5241691;28;20480;-71
2023/01/22 11:03:21;;;;;;;16.10;11.35;;;;;;;-0.42;100.00;103161.56;5241780;28;20456;-70
2023/01/22 11:06:13;;;;;;;;;;;;;;;-0.37;100.00;103161.88;5242627;28;20083;-70
2023/01/22 11:08:56;;;;;;;14.57;10.73;;;;;;;-0.45;100.00;103142.50;5240886;28;19996;-70
2023/01/22 11:11:37;;;;;;;18.45;11.13;;;;;;;-0.39;100.00;103141.28;5242123;28;20075;-70
2023/01/22 11:14:21;;;;;;;13.88;11.20;;;;;;;-0.30;100.00;103132.44;5241528;28;20034;-72
2023/01/22 11:16:57;;;;;;;16.83;12.95;;;;;;;-0.31;100.00;103133.22;5241616;28;20025;-70
2023/01/22 11:19:38;;;;;;;12.98;10.70;;;;;;;-0.33;100.00;103127.09;5241349;28;20041;-71
2023/01/22 11:22:32;;;;;;;14.93;11.10;;;;;;;-0.27;100.00;103125.84;5241854;28;20361;-71
2023/01/22 11:25:09;;;;;;;13.90;11.02;;;;;;;-0.18;100.00;103130.72;5241237;28;20076;-71
2023/01/22 11:28:01;;;;;;;15.40;11.05;;;;;;;-0.16;100.00;103125.69;5240880;28;20045;-71
2023/01/22 11:30:39;;;;;;;13.48;11.35;;;;;;;-0.03;100.00;103126.66;5241169;28;20029;-71
2023/01/22 11:33:46;;;;;;;13.18;10.95;;;;;;;0.01;100.00;103116.59;5241438;28;20045;-71
2023/01/22 11:36:30;;;;;;;12.48;10.90;;;;;;;-0.05;100.00;103128.22;5241008;28;20045;-72
2023/01/22 11:39:25;;;;;;;15.07;10.75;;;;;;;0.07;100.00;103119.59;5241222;28;20035;-70
2023/01/22 11:42:05;;;;;;;14.20;11.43;;;;;;;0.01;100.00;103111.47;5241228;28;20026;-70